createdAt,value
2018-09-06T00:02:25.933Z,13
2018-09-06T00:07:28.491Z,14
2018-09-06T00:12:30.851Z,12
2018-09-06T00:17:33.307Z,14
2018-09-06T00:22:35.794Z,14
2018-09-06T00:27:38.288Z,14
2018-09-06T00:32:40.672Z,15
2018-09-06T00:37:43.191Z,15
2018-09-06T00:42:45.801Z,15
2018-09-06T00:47:48.051Z,15
2018-09-06T00:52:50.503Z,15
2018-09-06T00:57:52.998Z,15
2018-09-06T01:02:55.470Z,17
2018-09-06T01:07:57.893Z,15
2018-09-06T01:13:00.343Z,15
2018-09-06T01:18:02.861Z,15
2018-09-06T01:23:05.376Z,16
2018-09-06T01:28:07.715Z,17
2018-09-06T01:33:10.171Z,16
2018-09-06T01:38:12.638Z,16
2018-09-06T01:43:15.185Z,16
2018-09-06T01:48:17.552Z,15
2018-09-06T01:53:20.047Z,16
2018-09-06T01:58:22.651Z,16
2018-09-06T02:03:24.918Z,16
2018-09-06T02:08:27.397Z,16
2018-09-06T02:13:30.833Z,15
2018-09-06T02:18:32.311Z,17
2018-09-06T02:23:34.835Z,16
2018-09-06T02:28:37.234Z,16
2018-09-06T02:33:39.668Z,19
2018-09-06T02:38:42.182Z,17
2018-09-06T02:43:44.678Z,16
2018-09-06T02:48:47.047Z,17
2018-09-06T02:53:49.504Z,17
2018-09-06T02:58:51.957Z,17
2018-09-06T03:03:54.586Z,17
2018-09-06T03:08:56.882Z,17
2018-09-06T03:14:00.152Z,18
2018-09-06T03:19:01.835Z,16
2018-09-06T03:24:04.386Z,17
2018-09-06T03:29:06.721Z,18
2018-09-06T03:34:09.474Z,18
2018-09-06T03:39:11.712Z,20
2018-09-06T03:44:14.074Z,19
2018-09-06T03:49:16.572Z,19
2018-09-06T03:54:19.013Z,19
2018-09-06T03:59:21.449Z,18
2018-09-06T04:04:24.367Z,19
2018-09-06T04:09:26.371Z,19
2018-09-06T04:14:28.870Z,20
2018-09-06T04:19:31.293Z,18
2018-09-06T04:24:34.228Z,20
2018-09-06T04:29:36.327Z,19
2018-09-06T04:34:38.734Z,18
2018-09-06T04:39:41.268Z,17
2018-09-06T04:44:43.626Z,19
2018-09-06T04:49:46.020Z,20
2018-09-06T04:54:48.482Z,20
2018-09-06T04:59:50.992Z,20
2018-09-06T05:04:53.399Z,19
2018-09-06T05:09:55.931Z,19
2018-09-06T05:14:58.323Z,19
2018-09-06T05:25:03.252Z,20
2018-09-06T05:30:05.699Z,19
2018-09-06T05:35:08.218Z,19
2018-09-06T05:45:13.097Z,19
2018-09-06T05:50:15.528Z,19
2018-09-06T05:55:18.034Z,18
2018-09-06T06:00:20.436Z,20
2018-09-06T06:05:22.981Z,17
2018-09-06T06:10:25.369Z,17
2018-09-06T06:15:27.830Z,17
2018-09-06T06:20:30.339Z,16
2018-09-06T06:25:32.790Z,14
2018-09-06T06:30:35.209Z,15
2018-09-06T06:35:37.752Z,13
2018-09-06T06:40:40.110Z,13
2018-09-06T06:45:42.569Z,13
2018-09-06T06:50:45.016Z,14
2018-09-06T06:55:47.520Z,13
2018-09-06T07:00:50.088Z,11
2018-09-06T07:05:52.536Z,11
2018-09-06T07:10:54.873Z,11
2018-09-06T07:15:57.317Z,12
2018-09-06T07:41:09.702Z,10
2018-09-06T07:46:12.171Z,11
2018-09-06T07:51:14.605Z,11
2018-09-06T07:56:17.166Z,11
2018-09-06T08:01:19.695Z,10
2018-09-06T08:06:21.952Z,10
2018-09-06T08:11:24.389Z,11
2018-09-06T08:16:26.853Z,9
2018-09-06T08:21:29.452Z,9
2018-09-06T08:26:31.770Z,9
2018-09-06T08:31:34.320Z,9
2018-09-06T08:36:36.851Z,8
2018-09-06T08:41:40.638Z,8
2018-09-06T08:46:41.743Z,9
2018-09-06T08:51:44.168Z,9
2018-09-06T08:56:46.556Z,10
2018-09-06T09:01:49.006Z,8
2018-09-06T09:06:51.435Z,8
2018-09-06T09:11:53.895Z,10
2018-09-06T09:16:56.369Z,8
2018-09-06T09:21:58.988Z,8
2018-09-06T09:27:01.358Z,8
2018-09-06T09:32:03.770Z,9
2018-09-06T09:37:06.215Z,8
2018-09-06T09:42:08.753Z,8
2018-09-06T09:52:13.577Z,9
2018-09-06T09:57:16.095Z,9
2018-09-06T10:02:18.483Z,8
2018-09-06T10:07:20.985Z,9
2018-09-06T10:12:23.457Z,10
2018-09-06T10:17:25.875Z,9
2018-09-06T10:22:28.408Z,10
2018-09-06T10:32:33.238Z,10
2018-09-06T10:37:35.732Z,10
2018-09-06T10:42:38.161Z,9
2018-09-06T10:47:41.080Z,9
2018-09-06T10:52:43.134Z,8
2018-09-06T10:57:45.577Z,10
2018-09-06T11:02:48.046Z,9
2018-09-06T11:07:50.510Z,10
2018-09-06T11:17:55.443Z,8
2018-09-06T11:22:57.834Z,9
2018-09-06T11:28:00.354Z,9
2018-09-06T11:33:02.731Z,9
2018-09-06T11:38:05.203Z,9
2018-09-06T11:43:07.679Z,9
2018-09-06T11:48:10.165Z,10
2018-09-06T11:53:12.597Z,10
2018-09-06T11:58:15.021Z,10
2018-09-06T12:03:17.514Z,9
2018-09-06T12:08:19.946Z,9
2018-09-06T12:13:22.512Z,10
2018-09-06T12:18:24.921Z,9
2018-09-06T12:23:27.419Z,10
2018-09-06T12:28:29.778Z,10
2018-09-06T12:33:32.321Z,10
2018-09-06T12:38:34.760Z,11
2018-09-06T12:43:37.178Z,11
2018-09-06T12:48:39.694Z,9
2018-09-06T12:53:42.074Z,10
2018-09-06T12:58:44.560Z,10
2018-09-06T13:03:46.983Z,10
2018-09-06T13:08:49.581Z,9
2018-09-06T13:13:51.911Z,11
2018-09-06T13:18:54.453Z,10
2018-09-06T13:23:56.823Z,10
2018-09-06T13:28:59.276Z,11
2018-09-06T13:34:01.752Z,10
2018-09-06T13:39:04.206Z,10
2018-09-06T13:44:06.809Z,9
2018-09-06T13:49:09.119Z,10
2018-09-06T13:54:11.571Z,10
2018-09-06T13:59:14.064Z,7
2018-09-06T14:04:16.520Z,8
2018-09-06T14:09:18.963Z,10
2018-09-06T14:14:21.501Z,9
2018-09-06T14:19:23.877Z,9
2018-09-06T14:24:26.381Z,9
2018-09-06T14:29:28.870Z,9
2018-09-06T14:34:31.249Z,9
2018-09-06T14:39:33.698Z,9
2018-09-06T14:44:36.166Z,9
2018-09-06T14:49:38.692Z,10
2018-09-06T14:54:41.101Z,10
2018-09-06T14:59:43.524Z,9
2018-09-06T15:04:46.039Z,9
2018-09-06T15:09:48.454Z,10
2018-09-06T15:14:50.993Z,8
2018-09-06T15:19:53.494Z,9
2018-09-06T15:24:55.895Z,10
2018-09-06T15:29:58.308Z,9
2018-09-06T15:35:00.827Z,10
2018-09-06T15:40:03.274Z,9
2018-09-06T15:45:05.792Z,10
2018-09-06T15:50:08.304Z,9
2018-09-06T15:55:10.723Z,9
2018-09-06T16:00:13.072Z,10
2018-09-06T16:05:15.502Z,11
2018-09-06T16:10:18.066Z,9
2018-09-06T16:15:20.424Z,10
2018-09-06T16:20:22.881Z,10
2018-09-06T16:25:25.338Z,10
2018-09-06T16:30:27.813Z,11
2018-09-06T16:35:30.254Z,11
2018-09-06T16:40:32.714Z,14
2018-09-06T16:45:35.188Z,9
2018-09-06T16:50:37.648Z,10
2018-09-06T16:55:40.165Z,10
2018-09-06T17:00:42.616Z,10
2018-09-06T17:05:45.031Z,9
2018-09-06T17:10:47.467Z,9
2018-09-06T17:15:50.104Z,9
2018-09-06T17:20:52.412Z,10
2018-09-06T17:25:55.049Z,10
2018-09-06T17:30:57.491Z,10
2018-09-06T17:35:59.772Z,10
2018-09-06T17:41:02.288Z,11
2018-09-06T17:46:04.997Z,12
2018-09-06T17:51:07.292Z,13
2018-09-06T17:56:09.610Z,13
2018-09-06T18:01:12.103Z,12
2018-09-06T18:06:14.527Z,13
2018-09-06T18:11:17.058Z,16
2018-09-06T18:16:19.470Z,13
2018-09-06T18:21:21.894Z,13
2018-09-06T18:26:24.530Z,13
2018-09-06T18:31:26.791Z,14
2018-09-06T18:36:29.516Z,14
2018-09-06T18:41:31.790Z,14
2018-09-06T18:46:34.191Z,14
2018-09-06T18:51:36.637Z,13
2018-09-06T18:56:39.103Z,13
2018-09-06T19:01:41.559Z,11
2018-09-06T19:06:44.062Z,13
2018-09-06T19:11:46.499Z,12
2018-09-06T19:16:49.007Z,13
2018-09-06T19:21:51.389Z,11
2018-09-06T19:26:53.858Z,12
2018-09-06T19:31:56.404Z,11
2018-09-06T19:36:58.753Z,12
2018-09-06T19:42:01.233Z,13
2018-09-06T19:47:03.772Z,13
2018-09-06T19:52:06.152Z,14
2018-09-06T19:57:08.589Z,11
2018-09-06T20:02:11.060Z,13
2018-09-06T20:07:13.522Z,11
2018-09-06T20:12:16.036Z,12
2018-09-06T20:17:18.435Z,11
2018-09-06T20:22:21.059Z,12
2018-09-06T20:27:23.421Z,12
2018-09-06T20:32:25.845Z,12
2018-09-06T20:37:28.293Z,12
2018-09-06T20:42:30.733Z,12
2018-09-06T20:47:33.192Z,11
2018-09-06T20:52:35.643Z,12
2018-09-06T20:57:38.090Z,12
2018-09-06T21:02:40.568Z,11
2018-09-06T21:07:43.025Z,11
2018-09-06T21:12:45.474Z,11
2018-09-06T21:17:47.931Z,11
2018-09-06T21:22:50.384Z,11
2018-09-06T21:27:52.841Z,12
2018-09-06T21:32:55.357Z,12
2018-09-06T21:37:57.779Z,11
2018-09-06T21:43:00.246Z,12
2018-09-06T21:48:02.717Z,11
2018-09-06T21:53:05.133Z,11
2018-09-06T21:58:07.613Z,12
2018-09-06T22:03:10.065Z,10
2018-09-06T22:08:12.590Z,11
2018-09-06T22:13:15.027Z,11
2018-09-06T22:18:17.496Z,11
2018-09-06T22:23:19.996Z,11
2018-09-06T22:28:22.422Z,11
2018-09-06T22:33:24.816Z,11
2018-09-06T22:38:27.267Z,10
2018-09-06T22:43:29.739Z,11
2018-09-06T22:48:32.210Z,10
2018-09-06T22:53:34.657Z,11
2018-09-06T22:58:37.150Z,11
2018-09-06T23:03:39.580Z,11
2018-09-06T23:08:42.047Z,11
2018-09-06T23:13:44.478Z,11
2018-09-06T23:18:46.933Z,12
2018-09-06T23:23:49.395Z,12
2018-09-06T23:28:52.018Z,12
2018-09-06T23:33:54.315Z,12
2018-09-06T23:38:56.832Z,12
2018-09-06T23:43:59.221Z,12
2018-09-06T23:49:02.105Z,12
2018-09-06T23:54:04.156Z,11
2018-09-06T23:59:06.604Z,12
